Cromwell, Oklahoma
Current Conditions -  °F | °C
As of 8:55 AM on Sunday 21 Dec 2014 (Local Time) from KSNL Reporting Station
Haze Haze  
Wind Chill: 42°   Ceiling: 700
Heat Index: 46°   Visibility: 4mi
Dew Point: 46°   Wind: 8mph
Humidity: 100%   Direction: 170°S
Pressure: 30.04"   Gusts: NA
Location:  35.34°N, 96.46°W
Report Text: KSNL 211455Z AUTO 17007KT 4SM BR BKN007 OVC014 08/08 A3004 RMK AO2
Loading
Personal Weather Stations






























Interactive Weather Map New forecast layout! Learn more

10-Day Weather Forecast

Advertisements
Track Severe Weather on mobile